Estació municipal de Seva (Osona, P.N. del Montseny)

Consulta les dades en temps real de l'estació municipal de Seva





Hora UTC 10:15
Temperatura 29.1 ºC
Sòl 15 cm 34.5 ºC
Humitat 41.1 %
Pressió 1026.3 hPa
Pluja 0.0 mm
Velocitat vent 8.4 km/h
Direcció vent SSE
Radiació solar 692.1 W/m²

Webcam

Dades diàries 2026-09-03



Hora UTC (hivern +1h; estiu +2h)
Temperatura (ºC) Humitat (%) Pressió (hPa) Velocitat vent (km/h) Precipitació (mm) Radiació solar (W/m²)
Hora UTC Aire Sòl 15 cm Humitat Pressió Vel. Dir. Vel. Max Dir. Intent. màx 5 min. Rad. Sol.
00:05 18.2 16.3 84.0 1026.0 2.9 NE 2.9 NNE 0.0 0.0
00:10 18.3 16.4 84.1 1026.0 2.8 E 4.2 E 0.0 0.0
00:15 18.4 16.4 83.4 1026.1 3.4 E 5.3 E 0.0 0.1
00:20 18.4 16.4 82.9 1026.0 3.5 E 5.3 ENE 0.0 0.1
00:25 18.4 16.4 83.3 1026.1 4.1 ENE 5.3 ENE 0.0 0.0
00:30 18.3 16.3 83.4 1026.1 4.4 E 5.6 E 0.0 0.1
00:35 18.2 16.3 83.6 1026.1 3.9 E 5.6 ENE 0.0 0.1
00:40 18.1 16.3 83.8 1026.0 4.6 E 6.7 E 0.0 0.1
00:45 18.0 16.2 84.3 1026.0 5.4 E 6.7 E 0.0 0.0
00:50 17.9 16.2 84.6 1026.0 4.7 E 6.4 E 0.0 0.0
00:55 17.8 16.1 85.2 1026.0 5.2 E 7.1 E 0.0 0.0
01:00 17.7 16.0 85.4 1026.0 5.1 E 6.7 E 0.0 0.1
01:05 17.7 16.1 85.6 1025.9 5.2 E 7.1 E 0.0 0.1
01:10 17.7 16.0 85.7 1025.9 4.7 E 6.0 E 0.0 0.1
01:15 17.8 16.1 85.9 1025.9 4.9 E 6.0 E 0.0 0.0
01:20 17.7 16.0 85.8 1025.9 4.9 E 6.0 E 0.0 0.0
01:25 17.7 16.0 86.0 1025.8 4.2 E 6.4 E 0.0 0.0
01:30 17.6 16.0 86.3 1025.9 2.8 E 4.2 E 0.0 0.1
01:35 17.6 15.9 86.5 1025.9 2.8 ENE 4.6 E 0.0 0.1
01:40 17.6 15.9 86.5 1025.9 1.9 ENE 5.6 ENE 0.0 0.1
01:45 17.6 15.8 86.6 1025.9 1.1 ESE 2.8 E 0.0 0.1
01:50 17.5 15.8 86.8 1025.9 0.1 SE 1.4 SE 0.0 0.1
01:55 17.5 15.7 86.9 1025.9 0.5 SE 2.8 ESE 0.0 0.0
02:00 17.4 15.6 87.0 1025.8 0.1 SE 1.1 SE 0.0 0.0
02:05 17.4 15.6 87.3 1025.9 1.6 ESE 2.5 SE 0.0 0.0
02:10 17.3 15.5 87.4 1025.9 1.6 E 3.2 E 0.0 0.1
02:15 17.3 15.5 87.3 1025.8 2.3 ENE 3.2 E 0.0 0.1
02:20 17.4 15.5 87.2 1025.9 1.7 ESE 2.8 SE 0.0 0.0
02:25 17.5 15.5 87.2 1025.8 2.6 SE 3.2 SE 0.0 0.0
02:30 17.6 15.5 86.5 1025.8 0.3 SE 2.1 SE 0.0 0.1
02:35 17.5 15.5 86.4 1025.8 2.0 SSE 3.5 SE 0.0 0.0
02:40 17.6 15.5 86.7 1025.8 0.9 SSW 2.1 SSW 0.0 0.1
02:45 17.5 15.5 86.3 1025.8 1.5 SSE 2.5 SE 0.0 0.0
02:50 17.4 15.5 86.8 1025.8 0.7 SSE 1.8 SE 0.0 0.0
02:55 17.4 15.5 86.9 1025.7 0.5 SE 2.5 SE 0.0 0.1
03:00 17.4 15.5 86.9 1025.7 0.6 ESE 1.8 SE 0.0 0.1
03:05 17.4 15.5 87.4 1025.7 0.0 NNE 0.0 ESE 0.0 0.0
03:10 17.3 15.4 87.6 1025.7 0.0 NNE 0.0 W 0.0 0.0
03:15 17.2 15.3 87.7 1025.7 0.3 SSE 2.1 SSE 0.0 0.1
03:20 17.2 15.2 87.9 1025.7 1.3 S 2.5 S 0.0 0.0
03:25 17.2 15.2 88.3 1025.7 1.6 S 3.2 S 0.0 0.0
03:30 17.1 15.2 88.3 1025.7 0.6 SE 2.1 SE 0.0 0.0
03:35 17.0 15.1 88.6 1025.7 1.5 E 2.8 ESE 0.0 0.0
03:40 17.0 15.0 88.9 1025.6 2.2 ESE 3.5 ESE 0.0 0.0
03:45 17.0 15.0 88.8 1025.6 2.8 E 3.5 E 0.0 0.0
03:50 16.9 15.1 88.8 1025.5 2.6 ENE 3.2 E 0.0 0.0
03:55 16.9 15.0 88.9 1025.5 2.1 ENE 2.8 ENE 0.0 0.1
04:00 16.8 14.9 88.7 1025.4 2.2 E 3.2 E 0.0 0.0
04:05 16.7 14.9 88.9 1025.4 3.0 E 3.9 ENE 0.0 0.0
04:10 16.7 14.9 89.6 1025.3 2.3 ESE 3.2 E 0.0 0.0
04:15 16.9 14.9 89.6 1025.3 1.5 E 2.1 E 0.0 0.1
04:20 16.8 14.9 89.0 1025.3 2.3 ESE 3.2 ESE 0.0 0.0
04:25 16.7 14.9 89.2 1025.3 2.4 E 2.8 E 0.0 0.0
04:30 16.6 14.8 89.4 1025.2 2.2 ESE 2.8 ESE 0.0 0.1
04:35 16.5 14.7 89.7 1025.2 1.3 SE 1.8 ESE 0.0 0.0
04:40 16.4 14.6 89.9 1025.2 0.6 SSE 1.8 SE 0.0 0.0
04:45 16.4 14.5 90.4 1025.3 0.0 NNE 0.0 WSW 0.0 0.1
04:50 16.3 14.5 90.7 1025.4 2.3 NE 4.6 NE 0.0 0.1
04:55 16.2 14.4 91.0 1025.4 3.1 ENE 4.9 ENE 0.0 0.1
05:00 16.2 14.4 91.5 1025.4 2.8 ENE 3.9 E 0.0 0.1
05:05 16.3 14.4 91.8 1025.5 1.0 ENE 2.8 ENE 0.0 0.4
05:10 16.4 14.5 91.6 1025.5 0.2 E 1.4 ENE 0.0 0.9
05:15 16.3 14.4 91.3 1025.5 0.0 ENE 1.1 ENE 0.0 1.8
05:20 16.2 14.3 91.3 1025.5 0.0 SE 1.1 SE 0.0 3.1
05:25 16.2 14.3 91.5 1025.6 1.6 ESE 2.8 ESE 0.0 5.0
05:30 16.1 14.4 91.2 1025.6 3.0 ESE 3.5 SE 0.0 7.7
05:35 16.2 14.4 91.8 1025.6 2.0 ESE 3.2 ESE 0.0 10.5
05:40 16.2 14.4 91.6 1025.7 1.1 ESE 2.1 E 0.0 13.3
05:45 16.2 14.5 91.4 1025.7 0.0 S 1.1 S 0.0 16.2
05:50 16.3 14.5 91.8 1025.7 0.0 NNE 0.0 S 0.0 19.5
05:55 16.3 14.7 91.8 1025.8 0.0 WSW 1.1 WSW 0.0 31.2
06:00 16.3 14.8 91.6 1025.8 0.0 NNE 0.0 E 0.0 42.7
06:05 16.3 14.8 91.8 1025.9 0.2 NNE 1.4 NNE 0.0 78.1
06:10 16.5 14.9 91.7 1025.9 0.1 NE 1.1 ENE 0.0 92.1
06:15 16.7 15.2 91.3 1025.9 0.1 NE 1.4 NE 0.0 104.6
06:20 16.8 15.4 91.0 1026.0 0.0 NNE 0.0 E 0.0 117.3
06:25 17.0 15.7 90.8 1026.1 0.0 NNE 0.0 E 0.0 130.3
06:30 17.1 16.0 90.4 1026.1 0.6 NNE 2.5 NNE 0.0 144.3
06:35 17.4 16.3 90.0 1026.1 2.0 NNE 3.5 NNE 0.0 158.2
06:40 17.9 16.7 87.6 1026.1 2.2 N 3.2 NNW 0.0 172.5
06:45 18.7 17.3 84.3 1026.1 1.6 N 4.6 NW 0.0 186.3
06:50 19.3 18.6 81.5 1026.1 3.8 NNW 6.0 NNW 0.0 200.4
06:55 19.6 20.4 80.4 1026.1 2.8 NNW 4.2 NW 0.0 214.9
07:00 20.0 20.7 79.1 1026.1 1.3 NW 2.8 NW 0.0 229.7
07:05 20.4 21.2 77.5 1026.1 0.8 NW 2.1 NNW 0.0 244.3
07:10 20.9 21.8 76.0 1026.1 0.0 NNE 0.0 NW 0.0 258.5
07:15 21.7 22.6 72.3 1026.1 0.1 NE 1.1 NE 0.0 273.3
07:20 22.1 24.3 70.9 1026.1 1.2 NNE 3.2 N 0.0 287.2
07:25 22.3 25.7 69.8 1026.2 2.6 N 4.2 NNE 0.0 301.3
07:30 22.3 26.6 70.3 1026.2 3.0 NNW 4.6 N 0.0 316.8
07:35 22.4 27.3 70.1 1026.2 3.8 NNW 5.3 NNW 0.0 331.1
07:40 22.2 27.6 70.8 1026.2 3.9 NNW 6.0 NW 0.0 344.6
07:45 22.2 28.3 70.9 1026.2 4.6 NNW 7.4 N 0.0 358.4
07:50 22.3 28.5 70.8 1026.2 4.4 N 6.4 NNW 0.0 372.4
07:55 22.5 28.7 70.5 1026.2 3.9 NNW 5.6 NNW 0.0 386.0
08:00 22.7 29.0 69.3 1026.2 3.4 N 5.3 N 0.0 399.2
08:05 23.1 29.6 68.2 1026.2 2.9 N 5.3 N 0.0 412.1
08:10 23.5 30.3 66.5 1026.1 2.5 N 4.6 NW 0.0 425.4
08:15 23.7 30.8 66.0 1026.1 3.0 NNW 5.3 NNW 0.0 438.7
08:20 23.9 31.2 65.0 1026.1 3.1 WNW 5.3 WNW 0.0 451.4
08:25 24.3 31.8 63.8 1026.2 4.0 WNW 6.7 WNW 0.0 463.9
08:30 24.3 32.0 63.9 1026.2 5.0 WNW 7.1 NW 0.0 476.5
08:35 24.8 32.4 61.2 1026.1 3.6 WNW 6.7 W 0.0 489.4
08:40 25.3 32.9 59.1 1026.1 5.2 WNW 8.5 WNW 0.0 502.6
08:45 26.1 33.5 56.9 1026.2 2.8 NW 6.0 WNW 0.0 515.7
08:50 26.6 34.0 55.0 1026.3 3.7 W 10.9 SSW 0.0 527.9
08:55 27.1 33.6 47.7 1026.3 5.9 SSE 15.5 S 0.0 539.6
09:00 27.6 33.4 44.6 1026.3 8.2 S 16.2 SSW 0.0 551.4
09:05 27.7 33.0 44.1 1026.3 9.4 S 18.7 S 0.0 562.3
09:10 27.8 32.9 44.1 1026.3 7.1 SE 17.6 SSE 0.0 572.7
09:15 27.8 32.6 43.7 1026.3 9.9 SSE 17.5 S 0.0 583.5
09:20 27.8 32.5 43.9 1026.3 8.1 S 15.9 SSE 0.0 593.6
09:25 27.9 32.6 43.4 1026.3 7.7 SSE 17.3 SSE 0.0 604.4
09:30 28.1 33.1 43.0 1026.4 6.9 SSE 15.2 SSE 0.0 613.6
09:35 28.2 33.2 42.9 1026.4 7.7 SSE 18.0 ESE 0.0 624.2
09:40 28.2 33.2 42.7 1026.4 9.5 S 20.8 SSE 0.0 634.2
09:45 28.6 33.4 41.9 1026.4 7.0 SSE 13.4 SSE 0.0 643.7
09:50 28.6 33.4 42.0 1026.3 7.4 SSE 18.7 S 0.0 653.7
09:55 29.0 34.0 41.0 1026.3 9.3 S 18.0 SSE 0.0 662.1
10:00 29.1 34.3 41.2 1026.3 6.9 SSE 17.6 ESE 0.0 668.5
10:05 29.1 34.5 40.9 1026.2 7.7 SSE 14.8 S 0.0 677.4
10:10 29.2 34.8 40.6 1026.2 7.9 SSE 18.4 S 0.0 685.8
10:15 29.1 34.5 41.1 1026.3 8.4 SSE 20.5 S 0.0 692.1
Màxima 29.2 34.8 91.8 1026.4 9.9 SSE 20.8 SSE 0.0 692.1
Mínima 16.1 14.3 40.6 1025.2
Total 0.0